createdAt,value
2023-04-22T00:00:44.099Z,5.78
2023-04-22T00:03:17.004Z,6.88
2023-04-22T00:05:47.532Z,8.43
2023-04-22T00:08:17.732Z,8.85
2023-04-22T00:10:48.048Z,8.48
2023-04-22T00:13:18.309Z,7.03
2023-04-22T00:15:48.856Z,5.68
2023-04-22T00:18:19.694Z,5.15
2023-04-22T00:20:49.940Z,5.22
2023-04-22T00:23:20.234Z,4.50
2023-04-22T00:25:51.388Z,4.22
2023-04-22T00:28:22.907Z,3.20
2023-04-22T00:30:53.258Z,2.80
2023-04-22T00:33:23.567Z,2.10
2023-04-22T00:35:54.958Z,2.20
2023-04-22T00:38:25.227Z,2.55
2023-04-22T00:40:56.001Z,2.63
2023-04-22T00:43:28.407Z,2.60
2023-04-22T00:45:58.884Z,4.22
2023-04-22T00:48:31.785Z,2.53
2023-04-22T00:51:02.704Z,2.33
2023-04-22T00:53:34.114Z,3.25
2023-04-22T00:56:06.183Z,2.78
2023-04-22T00:58:38.184Z,2.47
2023-04-22T01:01:08.554Z,2.42
2023-04-22T01:03:41.114Z,3.03
2023-04-22T01:06:11.668Z,2.50
2023-04-22T01:08:42.764Z,2.55
2023-04-22T01:11:14.047Z,2.45
2023-04-22T01:13:44.249Z,2.28
2023-04-22T01:16:14.729Z,2.83
2023-04-22T01:18:45.209Z,2.90
2023-04-22T01:21:15.856Z,3.75
2023-04-22T01:23:46.624Z,3.63
2023-04-22T01:26:17.092Z,3.30
2023-04-22T01:28:56.647Z,3.42
2023-04-22T01:31:26.981Z,3.38
2023-04-22T01:33:58.376Z,3.28
2023-04-22T01:36:29.935Z,3.85
2023-04-22T01:39:01.537Z,3.95
2023-04-22T01:41:32.266Z,3.63
2023-04-22T01:44:04.014Z,3.58
2023-04-22T01:46:34.561Z,3.50
2023-04-22T01:49:05.191Z,3.75
2023-04-22T01:51:35.913Z,3.95
2023-04-22T01:54:06.337Z,3.97
2023-04-22T01:56:37.034Z,3.67
2023-04-22T01:59:08.088Z,3.60
2023-04-22T02:01:38.502Z,2.80
2023-04-22T02:04:08.697Z,3.30
2023-04-22T02:06:41.243Z,3.70
2023-04-22T02:09:11.585Z,3.55
2023-04-22T02:11:44.075Z,3.75
2023-04-22T02:14:14.450Z,3.72
2023-04-22T02:16:44.744Z,3.60
2023-04-22T02:19:15.338Z,3.60
2023-04-22T02:21:47.793Z,4.28
2023-04-22T02:24:18.505Z,4.05
2023-04-22T02:26:49.510Z,4.25
2023-04-22T02:29:19.776Z,4.18
2023-04-22T02:31:50.310Z,3.65
2023-04-22T02:34:20.709Z,4.03
2023-04-22T02:36:51.236Z,3.55
2023-04-22T02:39:21.976Z,4.13
2023-04-22T02:41:52.321Z,4.50
2023-04-22T02:44:22.544Z,3.80
2023-04-22T02:46:52.931Z,4.18
2023-04-22T02:49:26.336Z,4.10
2023-04-22T02:51:57.740Z,3.70
2023-04-22T02:54:28.102Z,4.25
2023-04-22T02:56:58.318Z,4.15
2023-04-22T02:59:28.813Z,4.53
2023-04-22T03:01:59.629Z,5.20
2023-04-22T03:04:30.110Z,4.38
2023-04-22T03:07:00.584Z,4.43
2023-04-22T03:09:35.948Z,4.65
2023-04-22T03:12:06.275Z,4.82
2023-04-22T03:14:37.618Z,5.03
2023-04-22T03:17:07.822Z,5.93
2023-04-22T03:19:38.319Z,6.65
2023-04-22T03:22:08.982Z,6.43
2023-04-22T03:24:39.272Z,5.75
2023-04-22T03:27:10.937Z,6.78
2023-04-22T03:29:48.356Z,7.40
2023-04-22T03:32:21.709Z,6.35
2023-04-22T03:34:52.187Z,5.78
2023-04-22T03:37:22.492Z,5.55
2023-04-22T03:39:52.786Z,5.38
2023-04-22T03:42:23.050Z,5.65
2023-04-22T03:44:53.467Z,5.30
2023-04-22T03:47:24.082Z,5.20
2023-04-22T03:49:54.613Z,5.60
2023-04-22T03:52:24.892Z,4.57
2023-04-22T03:54:55.185Z,4.63
2023-04-22T03:57:25.499Z,4.70
2023-04-22T03:59:55.874Z,4.40
2023-04-22T04:02:26.382Z,4.32
2023-04-22T04:04:57.012Z,4.05
2023-04-22T04:07:27.849Z,3.65
2023-04-22T04:09:58.164Z,3.92
2023-04-22T04:12:28.433Z,4.18
2023-04-22T04:14:59.074Z,4.28
2023-04-22T04:17:29.422Z,4.50
2023-04-22T04:19:59.721Z,4.05
2023-04-22T04:22:30.312Z,3.97
2023-04-22T04:25:01.952Z,4.20
2023-04-22T04:27:32.922Z,4.43
2023-04-22T04:30:04.372Z,4.20
2023-04-22T04:32:36.145Z,3.90
2023-04-22T04:35:07.112Z,4.32
2023-04-22T04:37:37.593Z,2.80
2023-04-22T04:40:08.396Z,2.60
2023-04-22T04:42:39.066Z,2.70
2023-04-22T04:45:09.655Z,2.70
2023-04-22T04:47:39.965Z,2.75
2023-04-22T04:50:10.635Z,3.00
2023-04-22T04:52:40.970Z,2.40
2023-04-22T04:55:11.398Z,3.03
2023-04-22T04:57:41.705Z,2.47
2023-04-22T05:00:14.180Z,2.75
2023-04-22T05:02:44.511Z,3.20
2023-04-22T05:05:14.892Z,2.83
2023-04-22T05:07:45.213Z,2.92
2023-04-22T05:10:16.302Z,2.70
2023-04-22T05:12:49.528Z,2.60
2023-04-22T05:15:19.870Z,2.47
2023-04-22T05:17:50.977Z,3.25
2023-04-22T05:20:21.822Z,2.97
2023-04-22T05:22:52.047Z,2.40
2023-04-22T05:25:22.742Z,3.33
2023-04-22T05:27:53.039Z,2.85
2023-04-22T05:30:24.672Z,3.13
2023-04-22T05:32:55.098Z,3.00
2023-04-22T05:35:25.614Z,2.85
2023-04-22T05:37:56.072Z,2.30
2023-04-22T05:40:26.465Z,3.35
2023-04-22T05:42:57.996Z,3.03
2023-04-22T05:45:28.307Z,2.63
2023-04-22T05:47:58.626Z,2.63
2023-04-22T05:50:29.072Z,2.40
2023-04-22T05:52:59.553Z,2.25
2023-04-22T05:55:29.905Z,2.50
2023-04-22T05:58:00.230Z,2.70
2023-04-22T06:00:30.768Z,2.45
2023-04-22T06:03:01.774Z,2.28
2023-04-22T06:05:32.608Z,2.15
2023-04-22T06:08:02.946Z,2.10
2023-04-22T06:10:33.315Z,2.60
2023-04-22T06:13:06.663Z,2.03
2023-04-22T06:15:39.120Z,1.60
2023-04-22T06:18:09.460Z,1.70
2023-04-22T06:20:40.703Z,1.20
2023-04-22T06:23:12.359Z,1.40
2023-04-22T06:25:42.641Z,1.42
2023-04-22T06:28:12.934Z,1.50
2023-04-22T06:30:43.589Z,1.30
2023-04-22T06:33:15.086Z,1.70
2023-04-22T06:35:45.686Z,1.92
2023-04-22T06:38:16.232Z,1.60
2023-04-22T06:40:46.640Z,2.13
2023-04-22T06:43:17.112Z,1.50
2023-04-22T06:45:48.413Z,1.80
2023-04-22T06:48:23.372Z,2.22
2023-04-22T06:50:56.237Z,1.60
2023-04-22T06:53:29.180Z,1.60
2023-04-22T06:56:02.601Z,1.73
2023-04-22T06:58:32.929Z,1.30
2023-04-22T07:01:03.598Z,1.48
2023-04-22T07:03:34.302Z,1.35
2023-04-22T07:06:05.939Z,1.70
2023-04-22T07:08:36.479Z,1.48
2023-04-22T07:11:07.150Z,1.23
2023-04-22T07:13:47.432Z,1.30
2023-04-22T07:16:18.553Z,0.90
2023-04-22T07:18:51.432Z,1.70
2023-04-22T07:21:21.916Z,1.75
2023-04-22T07:23:55.258Z,1.70
2023-04-22T07:26:33.974Z,1.50
2023-04-22T07:29:07.561Z,1.85
2023-04-22T07:31:40.941Z,1.38
2023-04-22T07:34:32.224Z,1.40
2023-04-22T07:37:34.985Z,1.40
2023-04-22T07:40:06.177Z,1.20
2023-04-22T07:42:43.351Z,1.50
2023-04-22T07:45:15.666Z,1.30
2023-04-22T07:47:47.162Z,1.05
2023-04-22T07:50:20.851Z,1.27
2023-04-22T07:52:57.008Z,1.10
2023-04-22T07:56:12.974Z,1.17
2023-04-22T07:58:47.965Z,1.13
2023-04-22T08:01:19.965Z,1.15
2023-04-22T08:03:57.151Z,2.03
2023-04-22T08:06:33.073Z,1.35
2023-04-22T08:09:17.138Z,1.08
2023-04-22T08:11:50.489Z,1.02
2023-04-22T08:14:27.308Z,1.55
2023-04-22T08:18:05.584Z,1.15
2023-04-22T08:20:40.941Z,1.20
2023-04-22T08:23:16.373Z,1.10
2023-04-22T08:26:01.234Z,0.98
2023-04-22T08:28:42.594Z,1.10
2023-04-22T08:31:34.334Z,0.80
2023-04-22T08:34:05.911Z,0.70
2023-04-22T08:36:54.436Z,0.80
2023-04-22T08:39:24.814Z,1.20
2023-04-22T08:41:58.595Z,0.75
2023-04-22T08:44:29.986Z,1.10
2023-04-22T08:47:02.650Z,1.00
2023-04-22T08:49:35.938Z,0.77
2023-04-22T08:52:12.567Z,0.75
2023-04-22T08:54:44.093Z,0.90
2023-04-22T08:57:21.911Z,0.60
2023-04-22T08:59:59.239Z,0.90
2023-04-22T09:02:36.675Z,0.60
2023-04-22T09:05:11.760Z,0.90
2023-04-22T09:08:29.787Z,0.50
2023-04-22T09:11:00.493Z,0.68
2023-04-22T09:13:31.109Z,0.70
2023-04-22T09:16:01.855Z,0.70
2023-04-22T09:18:45.529Z,0.88
2023-04-22T09:21:56.253Z,0.70
2023-04-22T09:24:52.759Z,0.60
2023-04-22T09:27:37.207Z,0.60
2023-04-22T09:30:12.277Z,0.63
2023-04-22T09:32:51.928Z,0.40
2023-04-22T09:35:41.536Z,0.60
2023-04-22T09:39:08.243Z,0.85
2023-04-22T09:44:35.589Z,0.50
2023-04-22T09:47:19.625Z,0.60
2023-04-22T09:49:57.087Z,0.70
2023-04-22T10:11:10.362Z,0.75
2023-04-22T10:13:58.819Z,0.43
2023-04-22T10:16:32.537Z,0.65
2023-04-22T10:20:36.162Z,0.82
2023-04-22T10:22:36.034Z,0.80
2023-04-22T10:25:22.810Z,0.68
2023-04-22T10:28:08.512Z,0.70
2023-04-22T10:30:40.786Z,0.70
2023-04-22T10:33:30.439Z,0.77
2023-04-22T10:36:15.609Z,0.77
2023-04-22T10:38:55.385Z,0.65
2023-04-22T10:41:36.033Z,0.68
2023-04-22T10:44:08.024Z,0.73
2023-04-22T10:46:42.849Z,0.68
2023-04-22T10:49:18.229Z,0.70
2023-04-22T10:51:52.484Z,0.80
2023-04-22T10:54:31.947Z,0.60
2023-04-22T10:57:09.841Z,0.75
2023-04-22T10:59:50.056Z,0.55
2023-04-22T11:02:22.373Z,0.85
2023-04-22T11:05:14.534Z,0.70
2023-04-22T11:07:47.051Z,0.90
2023-04-22T11:10:33.959Z,0.80
2023-04-22T11:13:07.520Z,0.57
2023-04-22T11:15:43.222Z,0.80
2023-04-22T11:18:22.645Z,0.80
2023-04-22T11:20:54.211Z,0.60
2023-04-22T11:23:35.376Z,0.90
2023-04-22T11:26:12.104Z,0.77
2023-04-22T11:28:51.017Z,0.70
2023-04-22T11:31:21.472Z,0.60
2023-04-22T11:33:52.422Z,0.80
2023-04-22T11:36:24.604Z,0.40
2023-04-22T11:38:56.625Z,0.30
2023-04-22T11:41:28.381Z,1.20
2023-04-22T11:44:01.118Z,0.63
2023-04-22T11:46:32.156Z,0.60
2023-04-22T11:49:18.439Z,0.70
2023-04-22T11:51:54.096Z,0.60
2023-04-22T11:54:37.935Z,0.38
2023-04-22T11:57:09.943Z,0.75
2023-04-22T11:59:40.457Z,0.35
2023-04-22T12:02:11.235Z,0.57
2023-04-22T12:04:42.326Z,0.85
2023-04-22T12:07:12.593Z,0.47
2023-04-22T12:09:42.874Z,0.50
2023-04-22T12:12:13.037Z,0.52
2023-04-22T12:14:46.870Z,0.50
2023-04-22T12:17:20.420Z,0.50
2023-04-22T12:19:56.011Z,0.75
2023-04-22T12:22:30.821Z,0.70
2023-04-22T12:25:01.992Z,0.50
2023-04-22T12:27:32.189Z,0.40
2023-04-22T12:30:04.219Z,0.43
2023-04-22T12:32:34.491Z,0.35
2023-04-22T12:35:04.923Z,0.50
2023-04-22T12:37:35.475Z,0.40
2023-04-22T12:40:07.025Z,0.20
2023-04-22T12:42:37.275Z,0.30
2023-04-22T12:45:09.264Z,0.40
2023-04-22T12:47:39.611Z,0.40
2023-04-22T12:50:10.214Z,0.40
2023-04-22T12:52:40.462Z,0.40
2023-04-22T12:55:10.994Z,0.30
2023-04-22T12:57:41.164Z,0.30
2023-04-22T13:00:14.637Z,0.30
2023-04-22T13:02:46.952Z,0.40
2023-04-22T13:05:19.310Z,0.45
2023-04-22T13:07:59.549Z,0.20
2023-04-22T13:10:34.605Z,0.40
2023-04-22T13:15:39.177Z,0.43
2023-04-22T13:18:09.509Z,0.20
2023-04-22T13:20:41.031Z,0.68
2023-04-22T13:23:11.800Z,0.50
2023-04-22T13:25:42.130Z,0.60
2023-04-22T13:28:13.348Z,0.47
2023-04-22T13:30:43.625Z,0.30
2023-04-22T13:33:13.946Z,0.30
2023-04-22T13:35:44.194Z,0.38
2023-04-22T13:38:14.488Z,0.30
2023-04-22T13:40:44.669Z,0.35
2023-04-22T13:43:15.010Z,6.07
2023-04-22T13:45:45.751Z,1.50
2023-04-22T13:48:16.324Z,2.50
2023-04-22T13:50:46.619Z,4.40
2023-04-22T13:53:16.858Z,1.10
2023-04-22T13:55:47.035Z,0.50
2023-04-22T13:58:17.366Z,0.50
2023-04-22T14:00:47.792Z,0.40
2023-04-22T14:03:18.284Z,0.60
2023-04-22T14:05:48.451Z,0.50
2023-04-22T14:08:18.699Z,0.40
2023-04-22T14:10:48.796Z,0.38
2023-04-22T14:13:19.328Z,0.50
2023-04-22T14:15:50.966Z,0.38
2023-04-22T14:18:23.441Z,0.50
2023-04-22T14:20:53.629Z,0.50
2023-04-22T14:23:23.861Z,0.60
2023-04-22T14:25:54.218Z,0.50
2023-04-22T14:28:24.607Z,0.50
2023-04-22T14:30:55.296Z,0.47
2023-04-22T14:33:26.887Z,0.50
2023-04-22T14:35:57.608Z,0.40
2023-04-22T14:38:29.868Z,0.50
2023-04-22T14:41:00.041Z,0.60
2023-04-22T14:43:32.783Z,0.50
2023-04-22T14:46:03.821Z,0.60
2023-04-22T14:48:35.694Z,1.13
2023-04-22T14:51:06.130Z,0.68
2023-04-22T14:53:36.737Z,0.60
2023-04-22T14:56:07.047Z,0.60
2023-04-22T14:58:37.283Z,0.57
2023-04-22T15:01:07.818Z,0.57
2023-04-22T15:03:38.460Z,0.80
2023-04-22T15:06:08.812Z,0.60
2023-04-22T15:08:40.214Z,0.82
2023-04-22T15:11:10.600Z,0.93
2023-04-22T15:13:41.247Z,0.65
2023-04-22T15:16:12.869Z,1.45
2023-04-22T15:18:43.435Z,1.20
2023-04-22T15:21:13.705Z,0.82
2023-04-22T15:23:43.929Z,0.63
2023-04-22T15:26:15.445Z,0.80
2023-04-22T15:28:46.600Z,0.70
2023-04-22T15:31:20.988Z,0.52
2023-04-22T15:33:51.242Z,0.60
2023-04-22T15:36:22.161Z,1.30
2023-04-22T15:38:58.050Z,0.85
2023-04-22T15:41:31.128Z,0.93
2023-04-22T15:44:01.636Z,0.60
2023-04-22T15:46:33.235Z,0.65
2023-04-22T15:49:04.711Z,0.90
2023-04-22T15:51:34.900Z,0.80
2023-04-22T15:54:05.212Z,0.80
2023-04-22T15:56:36.259Z,0.80
2023-04-22T15:59:07.170Z,1.20
2023-04-22T16:01:44.396Z,1.20
2023-04-22T16:04:19.548Z,1.00
2023-04-22T16:06:50.911Z,1.10
2023-04-22T16:09:30.373Z,0.70
2023-04-22T16:12:08.635Z,1.00
2023-04-22T16:14:38.833Z,2.58
2023-04-22T16:17:09.171Z,2.42
2023-04-22T16:19:39.644Z,1.33
2023-04-22T16:22:10.104Z,1.48
2023-04-22T16:24:43.321Z,0.85
2023-04-22T16:27:17.062Z,1.80
2023-04-22T16:29:48.998Z,0.90
2023-04-22T16:32:19.262Z,1.20
2023-04-22T16:34:49.450Z,1.05
2023-04-22T16:37:20.786Z,0.90
2023-04-22T16:39:52.015Z,1.10
2023-04-22T16:42:22.827Z,1.40
2023-04-22T16:44:53.757Z,1.25
2023-04-22T16:47:24.915Z,0.95
2023-04-22T16:49:55.115Z,1.58
2023-04-22T16:52:25.408Z,1.08
2023-04-22T16:54:55.924Z,0.82
2023-04-22T16:57:26.224Z,1.00
2023-04-22T16:59:56.372Z,1.02
2023-04-22T17:02:26.801Z,1.13
2023-04-22T17:04:57.137Z,1.30
2023-04-22T17:07:27.508Z,1.33
2023-04-22T17:09:58.306Z,2.03
2023-04-22T17:12:28.754Z,1.60
2023-04-22T17:14:59.003Z,2.17
2023-04-22T17:17:29.330Z,1.90
2023-04-22T17:20:00.003Z,1.70
2023-04-22T17:22:30.262Z,1.42
2023-04-22T17:25:00.752Z,1.45
2023-04-22T17:27:31.814Z,1.98
2023-04-22T17:30:02.241Z,2.30
2023-04-22T17:32:32.650Z,3.40
2023-04-22T17:35:03.124Z,2.90
2023-04-22T17:37:33.337Z,3.30
2023-04-22T17:40:05.055Z,4.10
2023-04-22T17:42:45.971Z,5.30
2023-04-22T17:45:17.019Z,4.78
2023-04-22T17:47:48.926Z,5.55
2023-04-22T17:50:19.911Z,5.63
2023-04-22T17:52:50.318Z,5.50
2023-04-22T17:55:21.002Z,4.95
2023-04-22T17:57:53.402Z,4.03
2023-04-22T18:00:23.894Z,4.22
2023-04-22T18:02:54.647Z,4.03
2023-04-22T18:05:27.325Z,4.28
2023-04-22T18:08:02.961Z,4.18
2023-04-22T18:10:35.124Z,4.43
2023-04-22T18:13:06.759Z,4.53
2023-04-22T18:15:36.920Z,4.03
2023-04-22T18:18:07.264Z,3.40
2023-04-22T18:20:37.894Z,3.13
2023-04-22T18:23:11.258Z,3.20
2023-04-22T18:25:41.672Z,2.53
2023-04-22T18:28:11.889Z,2.70
2023-04-22T18:30:42.938Z,2.80
2023-04-22T18:33:13.567Z,3.38
2023-04-22T18:35:43.830Z,2.58
2023-04-22T18:38:14.399Z,3.63
2023-04-22T18:40:44.696Z,2.97
2023-04-22T18:43:15.072Z,3.50
2023-04-22T18:45:45.411Z,3.65
2023-04-22T18:48:16.367Z,4.20
2023-04-22T18:50:46.915Z,5.15
2023-04-22T18:53:25.139Z,5.22
2023-04-22T18:55:58.611Z,5.72
2023-04-22T18:58:29.148Z,4.65
2023-04-22T19:01:05.968Z,5.93
2023-04-22T19:03:37.518Z,6.05
2023-04-22T19:06:07.958Z,6.32
2023-04-22T19:08:38.393Z,6.93
2023-04-22T19:11:08.856Z,6.63
2023-04-22T19:13:39.262Z,6.95
2023-04-22T19:16:12.548Z,5.53
2023-04-22T19:18:44.354Z,4.85
2023-04-22T19:21:19.989Z,4.63
2023-04-22T19:23:53.114Z,3.35
2023-04-22T19:26:23.409Z,3.15
2023-04-22T19:28:59.395Z,3.17
2023-04-22T19:31:30.106Z,2.13
2023-04-22T19:34:05.446Z,2.25
2023-04-22T19:36:36.978Z,2.20
2023-04-22T19:39:11.534Z,2.55
2023-04-22T19:41:41.877Z,2.30
2023-04-22T19:44:12.209Z,2.60
2023-04-22T19:46:42.890Z,2.85
2023-04-22T19:49:17.538Z,2.72
2023-04-22T19:51:48.409Z,2.38
2023-04-22T19:54:21.821Z,3.13
2023-04-22T19:56:55.654Z,2.22
2023-04-22T19:59:28.324Z,2.60
2023-04-22T20:01:59.899Z,2.50
2023-04-22T20:04:30.759Z,2.47
2023-04-22T20:07:03.005Z,2.10
2023-04-22T20:09:33.914Z,1.83
2023-04-22T20:12:08.009Z,1.90
2023-04-22T20:14:43.466Z,1.83
2023-04-22T20:17:17.211Z,2.63
2023-04-22T20:19:50.213Z,3.00
2023-04-22T20:22:27.483Z,3.53
2023-04-22T20:25:03.825Z,2.83
2023-04-22T20:27:35.121Z,3.10
2023-04-22T20:30:17.852Z,2.15
2023-04-22T20:32:56.449Z,1.90
2023-04-22T20:35:27.080Z,1.95
2023-04-22T20:38:04.994Z,1.60
2023-04-22T20:40:39.163Z,1.90
2023-04-22T20:43:09.419Z,2.00
2023-04-22T20:45:40.237Z,2.20
2023-04-22T20:48:10.655Z,1.92
2023-04-22T20:50:40.943Z,2.13
2023-04-22T20:53:11.920Z,1.52
2023-04-22T20:55:42.132Z,1.90
2023-04-22T20:58:12.878Z,2.42
2023-04-22T21:00:43.770Z,2.22
2023-04-22T21:03:18.931Z,2.55
2023-04-22T21:05:52.565Z,2.47
2023-04-22T21:08:28.023Z,2.35
2023-04-22T21:11:00.212Z,2.00
2023-04-22T21:13:30.675Z,2.72
2023-04-22T21:16:11.579Z,1.98
2023-04-22T21:18:45.026Z,2.08
2023-04-22T21:21:17.740Z,1.70
2023-04-22T21:23:48.795Z,1.63
2023-04-22T21:26:19.243Z,1.73
2023-04-22T21:28:50.028Z,1.58
2023-04-22T21:31:21.306Z,1.60
2023-04-22T21:33:51.588Z,1.33
2023-04-22T21:36:22.833Z,1.30
2023-04-22T21:38:53.299Z,2.00
2023-04-22T21:41:24.009Z,1.88
2023-04-22T21:43:54.356Z,1.73
2023-04-22T21:46:24.800Z,1.60
2023-04-22T21:48:55.094Z,1.80
2023-04-22T21:51:25.449Z,1.92
2023-04-22T21:53:55.775Z,1.90
2023-04-22T21:56:26.826Z,1.48
2023-04-22T21:58:57.584Z,1.73
2023-04-22T22:01:27.872Z,1.90
2023-04-22T22:03:58.376Z,1.33
2023-04-22T22:06:29.962Z,1.25
2023-04-22T22:09:00.204Z,1.17
2023-04-22T22:11:31.576Z,1.42
2023-04-22T22:14:01.933Z,1.40
2023-04-22T22:16:33.611Z,1.40
2023-04-22T22:19:04.966Z,1.02
2023-04-22T22:21:35.208Z,1.08
2023-04-22T22:24:05.925Z,1.15
2023-04-22T22:26:36.867Z,1.00
2023-04-22T22:29:08.770Z,1.00
2023-04-22T22:31:38.989Z,1.20
2023-04-22T22:34:10.334Z,0.98
2023-04-22T22:36:41.458Z,0.98
2023-04-22T22:39:14.985Z,1.25
2023-04-22T22:41:45.338Z,1.08
2023-04-22T22:44:15.816Z,1.65
2023-04-22T22:46:46.393Z,1.20
2023-04-22T22:49:17.281Z,1.30
2023-04-22T22:51:47.687Z,1.20
2023-04-22T22:54:18.056Z,1.00
2023-04-22T22:56:48.408Z,1.25
2023-04-22T23:01:58.432Z,1.50
2023-04-22T23:04:28.959Z,1.23
2023-04-22T23:06:59.478Z,1.17
2023-04-22T23:09:29.850Z,1.40
2023-04-22T23:12:02.981Z,1.40
2023-04-22T23:14:33.668Z,1.23
2023-04-22T23:17:04.195Z,1.30
2023-04-22T23:19:38.092Z,1.40
2023-04-22T23:22:09.656Z,1.63
2023-04-22T23:24:40.575Z,1.45
2023-04-22T23:27:11.238Z,1.20
2023-04-22T23:29:42.436Z,2.00
2023-04-22T23:32:15.618Z,1.15
2023-04-22T23:34:52.601Z,1.55
2023-04-22T23:37:28.940Z,1.25
2023-04-22T23:39:59.474Z,2.10
2023-04-22T23:42:29.758Z,1.58
2023-04-22T23:45:00.027Z,1.50
2023-04-22T23:47:31.624Z,1.45
2023-04-22T23:50:02.343Z,1.50
2023-04-22T23:52:32.580Z,1.13
2023-04-22T23:55:03.499Z,1.33
2023-04-22T23:57:40.176Z,1.15
